| time (UTC) | temp C | wind direction | speed KPH | gust KPH | rain 1hr cm | rain 24hr cm | rain mn cm | humidity % | barometer mb |
| 20260906195603 | 29 | 74 | 3.2 | 8.0 | 0.00 | 0.05 | 0.05 | 63 | 1015.7 |
| 20260906194603 | 28 | 75 | 3.2 | 8.0 | 0.00 | 0.05 | 0.05 | 64 | 1015.7 |
| 20260906194103 | 28 | 76 | 3.2 | 8.0 | 0.00 | 0.05 | 0.05 | 65 | 1015.7 |
| 20260906193603 | 28 | 75 | 1.6 | 4.8 | 0.00 | 0.05 | 0.05 | 63 | 1015.7 |
| 20260906193103 | 28 | 75 | 0.0 | 4.8 | 0.00 | 0.05 | 0.05 | 63 | 1015.7 |
| 20260906192603 | 29 | 75 | 1.6 | 11.3 | 0.00 | 0.05 | 0.05 | 63 | 1015.7 |
| 20260906192103 | 29 | 77 | 3.2 | 11.3 | 0.00 | 0.05 | 0.05 | 62 | 1015.7 |
| 20260906190603 | 29 | 82 | 1.6 | 12.9 | 0.00 | 0.05 | 0.05 | 63 | 1015.8 |
| 20260906185603 | 28 | 52 | 1.6 | 12.9 | 0.00 | 0.05 | 0.05 | 59 | 1016.1 |
| 20260906184603 | 28 | 55 | 3.2 | 4.8 | 0.00 | 0.05 | 0.05 | 61 | 1016.1 |
| 20260906184103 | 28 | 54 | 1.6 | 4.8 | 0.00 | 0.05 | 0.05 | 61 | 1016.0 |
| 20260906183603 | 29 | 53 | 3.2 | 9.7 | 0.00 | 0.05 | 0.05 | 60 | 1016.0 |
| 20260906182603 | 29 | 52 | 8.0 | 16.1 | 0.00 | 0.05 | 0.05 | 61 | 1016.1 |
| 20260906182103 | 29 | 103 | 3.2 | 8.0 | 0.00 | 0.05 | 0.05 | 59 | 1016.1 |
| 20260906181603 | 28 | 103 | 1.6 | 8.0 | 0.00 | 0.05 | 0.05 | 60 | 1016.1 |
| 20260906180603 | 28 | 116 | 1.6 | 4.8 | 0.00 | 0.05 | 0.05 | 61 | 1016.0 |
| 20260906180103 | 27 | 116 | 3.2 | 9.7 | 0.00 | 0.05 | 0.05 | 63 | 1016.0 |
| 20260906175603 | 27 | 116 | 1.6 | 8.0 | 0.00 | 0.05 | 0.05 | 65 | 1016.0 |
| 20260906174603 | 27 | 144 | 3.2 | 9.7 | 0.00 | 0.05 | 0.05 | 66 | 1016.2 |
| 20260906174104 | 26 | 150 | 1.6 | 8.0 | 0.00 | 0.05 | 0.05 | 64 | 1016.2 |
| 20260906173603 | 26 | 155 | 0.0 | 4.8 | 0.00 | 0.05 | 0.05 | 65 | 1016.2 |
| 20260906173103 | 26 | 155 | 4.8 | 9.7 | 0.00 | 0.05 | 0.05 | 66 | 1016.2 |
| 20260906172604 | 26 | 155 | 4.8 | 9.7 | 0.00 | 0.05 | 0.05 | 65 | 1016.2 |
| 20260906172103 | 26 | 154 | 4.8 | 9.7 | 0.00 | 0.05 | 0.05 | 66 | 1015.4 |
| 20260906171604 | 26 | 154 | 4.8 | 19.3 | 0.00 | 0.05 | 0.05 | 66 | 1015.4 |
| 20260906171103 | 25 | 156 | 4.8 | 16.1 | 0.00 | 0.05 | 0.05 | 66 | 1015.4 |
| 20260906170603 | 25 | 148 | 4.8 | 9.7 | 0.00 | 0.05 | 0.05 | 66 | 1015.4 |
| 20260906170103 | 25 | 148 | 1.6 | 11.3 | 0.00 | 0.05 | 0.05 | 67 | 1015.4 |
| 20260906165603 | 25 | 152 | 3.2 | 9.7 | 0.00 | 0.05 | 0.05 | 67 | 1015.4 |
| 20260906165103 | 25 | 152 | 1.6 | 9.7 | 0.00 | 0.05 | 0.05 | 67 | 1015.5 |
| 20260906164103 | 25 | 152 | 4.8 | 11.3 | 0.00 | 0.05 | 0.05 | 65 | 1015.4 |
| 20260906163603 | 25 | 144 | 4.8 | 20.9 | 0.00 | 0.05 | 0.05 | 65 | 1015.4 |
| 20260906163103 | 25 | 143 | 9.7 | 20.9 | 0.00 | 0.05 | 0.05 | 64 | 1015.4 |
| 20260906162103 | 25 | 138 | 8.0 | 22.5 | 0.00 | 0.05 | 0.05 | 64 | 1015.8 |
| 20260906161603 | 25 | 145 | 16.1 | 29.0 | 0.00 | 0.05 | 0.05 | 62 | 1015.8 |
| 20260906160604 | 25 | 158 | 19.3 | 32.2 | 0.03 | 0.05 | 0.05 | 62 | 1015.7 |
| 20260906160104 | 24 | 147 | 9.7 | 19.3 | 0.03 | 0.05 | 0.05 | 64 | 1015.8 |
| 20260906155603 | 24 | 325 | 1.6 | 8.0 | 0.05 | 0.05 | 0.05 | 65 | 1015.1 |
| 20260906155103 | 24 | 329 | 4.8 | 8.0 | 0.05 | 0.05 | 0.05 | 61 | 1015.1 |
| 20260906154603 | 24 | 266 | 6.4 | 12.9 | 0.05 | 0.05 | 0.05 | 65 | 1015.1 |
| 20260906154104 | 24 | 160 | 12.9 | 25.7 | 0.05 | 0.05 | 0.05 | 63 | 1015.1 |
| 20260906153603 | 24 | 150 | 22.5 | 38.6 | 0.05 | 0.05 | 0.05 | 65 | 1015.1 |
| 20260906153103 | 22 | 153 | 24.1 | 37.0 | 0.05 | 0.05 | 0.05 | 71 | 1014.6 |
| 20260906152604 | 22 | 129 | 12.9 | 19.3 | 0.05 | 0.05 | 0.05 | 73 | 1015.9 |
| 20260906152103 | 22 | 145 | 9.7 | 19.3 | 0.05 | 0.05 | 0.05 | 73 | 1015.9 |
| 20260906151603 | 22 | 169 | 11.3 | 19.3 | 0.05 | 0.05 | 0.05 | 73 | 1016.9 |
| 20260906151103 | 22 | 168 | 16.1 | 29.0 | 0.03 | 0.03 | 0.03 | 76 | 1016.9 |
| 20260906150604 | 22 | 155 | 19.3 | 27.4 | 0.03 | 0.03 | 0.03 | 78 | 1016.9 |
| 20260906145603 | 21 | 163 | 9.7 | 12.9 | 0.00 | 0.00 | 0.00 | 81 | 1016.9 |
| 20260906144603 | 21 | 216 | 4.8 | 14.5 | 0.00 | 0.00 | 0.00 | 81 | 1016.9 |
| 20260906143603 | 21 | 243 | 12.9 | 19.3 | 0.00 | 0.00 | 0.00 | 82 | 1017.2 |
| 20260906143103 | 21 | 212 | 9.7 | 22.5 | 0.00 | 0.00 | 0.00 | 82 | 1017.6 |
| 20260906142603 | 21 | 233 | 11.3 | 24.1 | 0.00 | 0.00 | 0.00 | 81 | 1017.6 |
| 20260906142103 | 21 | 238 | 9.7 | 16.1 | 0.00 | 0.00 | 0.00 | 82 | 1017.6 |
| 20260906141603 | 21 | 233 | 8.0 | 19.3 | 0.00 | 0.00 | 0.00 | 83 | 1017.6 |
| 20260906141103 | 21 | 246 | 8.0 | 14.5 | 0.00 | 0.00 | 0.00 | 83 | 1017.6 |
| 20260906140603 | 21 | 245 | 11.3 | 16.1 | 0.00 | 0.00 | 0.00 | 83 | 1017.6 |
| 20260906140103 | 21 | 248 | 4.8 | 11.3 | 0.00 | 0.00 | 0.00 | 83 | 1017.8 |
| 20260906135103 | 21 | 255 | 4.8 | 8.0 | 0.00 | 0.00 | 0.00 | 83 | 1017.8 |
| 20260906134604 | 21 | 255 | 6.4 | 12.9 | 0.00 | 0.00 | 0.00 | 83 | 1017.8 |
| 20260906134103 | 21 | 262 | 8.0 | 9.7 | 0.00 | 0.00 | 0.00 | 83 | 1017.6 |
| 20260906133603 | 21 | 261 | 9.7 | 12.9 | 0.00 | 0.00 | 0.00 | 83 | 1017.5 |
| 20260906132603 | 21 | 263 | 9.7 | 12.9 | 0.00 | 0.00 | 0.00 | 83 | 1017.4 |
| 20260906131603 | 21 | 263 | 12.9 | 19.3 | 0.00 | 0.00 | 0.00 | 83 | 1017.5 |
| 20260906130103 | 22 | 285 | 11.3 | 19.3 | 0.00 | 0.00 | 0.00 | 81 | 1017.4 |
| 20260906125603 | 22 | 282 | 12.9 | 14.5 | 0.00 | 0.00 | 0.00 | 81 | 1017.6 |
| 20260906125103 | 22 | 285 | 9.7 | 16.1 | 0.00 | 0.00 | 0.00 | 81 | 1017.6 |
| 20260906124604 | 22 | 282 | 9.7 | 19.3 | 0.00 | 0.00 | 0.00 | 80 | 1017.6 |
| 20260906124103 | 22 | 262 | 14.5 | 19.3 | 0.00 | 0.00 | 0.00 | 80 | 1017.6 |
| 20260906123603 | 22 | 268 | 12.9 | 19.3 | 0.00 | 0.00 | 0.00 | 80 | 1017.6 |
| 20260906123103 | 22 | 279 | 14.5 | 19.3 | 0.00 | 0.00 | 0.00 | 79 | 1017.6 |
| 20260906122104 | 22 | 279 | 19.3 | 27.4 | 0.00 | 0.00 | 0.00 | 78 | 1017.7 |
| 20260906121603 | 22 | 272 | 9.7 | 16.1 | 0.00 | 0.00 | 0.00 | 79 | 1017.7 |
| 20260906121103 | 23 | 281 | 14.5 | 25.7 | 0.00 | 0.00 | 0.00 | 78 | 1017.7 |
| 20260906115604 | 23 | 261 | 16.1 | 24.1 | 0.00 | 0.00 | 0.00 | 78 | 1017.5 |
| 20260906115103 | 23 | 274 | 16.1 | 22.5 | 0.00 | 0.00 | 0.00 | 78 | 1017.5 |
| 20260906114603 | 23 | 263 | 16.1 | 24.1 | 0.00 | 0.00 | 0.00 | 77 | 1017.3 |
| 20260906114104 | 24 | 252 | 11.3 | 14.5 | 0.00 | 0.00 | 0.00 | 76 | 1017.0 |
| 20260906113604 | 24 | 271 | 9.7 | 12.9 | 0.00 | 0.00 | 0.00 | 76 | 1016.9 |
| 20260906113104 | 24 | 275 | 9.7 | 14.5 | 0.00 | 0.00 | 0.00 | 75 | 1016.7 |
| 20260906112104 | 24 | 268 | 11.3 | 14.5 | 0.00 | 0.00 | 0.00 | 74 | 1016.7 |
| 20260906111604 | 24 | 260 | 11.3 | 19.3 | 0.00 | 0.00 | 0.00 | 74 | 1016.4 |
| 20260906111103 | 24 | 258 | 9.7 | 14.5 | 0.00 | 0.00 | 0.00 | 74 | 1016.3 |
| 20260906110604 | 24 | 237 | 16.1 | 22.5 | 0.00 | 0.00 | 0.00 | 75 | 1016.3 |
| 20260906105603 | 23 | 262 | 20.9 | 29.0 | 0.00 | 0.00 | 0.00 | 77 | 1015.1 |
| 20260906104604 | 23 | 145 | 1.6 | 4.8 | 0.00 | 0.00 | 0.00 | 76 | 1015.1 |
| 20260906104103 | 23 | 145 | 1.6 | 3.2 | 0.00 | 0.00 | 0.00 | 76 | 1015.1 |
| 20260906103603 | 23 | 145 | 1.6 | 4.8 | 0.00 | 0.00 | 0.00 | 76 | 1015.1 |
| 20260906103104 | 23 | 145 | 1.6 | 4.8 | 0.00 | 0.00 | 0.00 | 75 | 1015.0 |
| 20260906102603 | 23 | 145 | 0.0 | 1.6 | 0.00 | 0.00 | 0.00 | 75 | 1014.9 |
| 20260906102103 | 23 | 145 | 1.6 | 4.8 | 0.00 | 0.00 | 0.00 | 75 | 1014.8 |
| 20260906101603 | 23 | 145 | 1.6 | 3.2 | 0.00 | 0.00 | 0.00 | 75 | 1015.0 |
| 20260906101103 | 23 | 145 | 0.0 | 3.2 | 0.00 | 0.00 | 0.00 | 76 | 1015.0 |
| 20260906100604 | 23 | 145 | 1.6 | 3.2 | 0.00 | 0.00 | 0.00 | 76 | 1015.0 |
| 20260906100104 | 23 | 145 | 1.6 | 3.2 | 0.00 | 0.00 | 0.00 | 76 | 1015.0 |
| 20260906095104 | 23 | 145 | 1.6 | 4.8 | 0.00 | 0.00 | 0.00 | 75 | 1015.0 |
| 20260906094604 | 23 | 145 | 1.6 | 4.8 | 0.00 | 0.00 | 0.00 | 75 | 1015.0 |
| 20260906094103 | 23 | 145 | 1.6 | 4.8 | 0.00 | 0.00 | 0.00 | 75 | 1015.0 |
| 20260906093604 | 23 | 145 | 1.6 | 9.7 | 0.00 | 0.00 | 0.00 | 75 | 1014.9 |
| 20260906093104 | 23 | 145 | 1.6 | 4.8 | 0.00 | 0.00 | 0.00 | 75 | 1014.9 |
| 20260906092104 | 23 | 145 | 0.0 | 3.2 | 0.00 | 0.00 | 0.00 | 76 | 1014.6 |
| 20260906091604 | 23 | 145 | 1.6 | 3.2 | 0.00 | 0.00 | 0.00 | 76 | 1014.6 |
| 20260906091104 | 23 | 145 | 0.0 | 9.7 | 0.00 | 0.00 | 0.00 | 76 | 1014.7 |
| 20260906090606 | 23 | 145 | 3.2 | 8.0 | 0.00 | 0.00 | 0.00 | 77 | 1014.7 |
| 20260906090105 | 23 | 145 | 1.6 | 4.8 | 0.00 | 0.00 | 0.00 | 76 | 1014.7 |
| 20260906085604 | 23 | 145 | 0.0 | 3.2 | 0.00 | 0.00 | 0.00 | 76 | 1014.6 |
| 20260906085103 | 23 | 145 | 0.0 | 3.2 | 0.00 | 0.00 | 0.00 | 76 | 1014.6 |
| 20260906084604 | 23 | 145 | 0.0 | 3.2 | 0.00 | 0.00 | 0.00 | 76 | 1014.6 |
| 20260906084104 | 23 | 145 | 1.6 | 3.2 | 0.00 | 0.00 | 0.00 | 76 | 1014.7 |
| 20260906083604 | 24 | 145 | 1.6 | 8.0 | 0.00 | 0.00 | 0.00 | 76 | 1014.7 |
| 20260906083103 | 24 | 145 | 1.6 | 4.8 | 0.00 | 0.00 | 0.00 | 76 | 1014.7 |
| 20260906082604 | 24 | 145 | 1.6 | 4.8 | 0.00 | 0.00 | 0.00 | 75 | 1014.7 |
| 20260906082104 | 24 | 145 | 1.6 | 8.0 | 0.00 | 0.00 | 0.00 | 75 | 1014.7 |
| 20260906081603 | 24 | 147 | 1.6 | 8.0 | 0.00 | 0.00 | 0.00 | 75 | 1014.7 |
| 20260906081104 | 24 | 147 | 4.8 | 9.7 | 0.00 | 0.00 | 0.00 | 75 | 1014.7 |
| 20260906080603 | 24 | 148 | 4.8 | 14.5 | 0.00 | 0.00 | 0.00 | 75 | 1014.7 |
| 20260906080104 | 24 | 145 | 4.8 | 12.9 | 0.00 | 0.00 | 0.00 | 75 | 1014.7 |
| 20260906075603 | 24 | 146 | 4.8 | 11.3 | 0.00 | 0.00 | 0.00 | 75 | 1014.8 |
| 20260906075103 | 24 | 146 | 4.8 | 11.3 | 0.00 | 0.00 | 0.00 | 75 | 1014.8 |
| 20260906074604 | 24 | 146 | 4.8 | 12.9 | 0.00 | 0.00 | 0.00 | 75 | 1014.8 |
| 20260906074104 | 25 | 150 | 4.8 | 9.7 | 0.00 | 0.00 | 0.00 | 75 | 1014.8 |
| 20260906073603 | 25 | 152 | 3.2 | 9.7 | 0.00 | 0.00 | 0.00 | 75 | 1014.8 |
| 20260906073103 | 25 | 155 | 6.4 | 11.3 | 0.00 | 0.00 | 0.00 | 74 | 1014.8 |
| 20260906072604 | 25 | 144 | 4.8 | 11.3 | 0.00 | 0.00 | 0.00 | 74 | 1014.8 |
| 20260906072104 | 25 | 143 | 4.8 | 11.3 | 0.00 | 0.00 | 0.00 | 73 | 1014.7 |
| 20260906071603 | 25 | 144 | 6.4 | 12.9 | 0.00 | 0.00 | 0.00 | 73 | 1014.7 |
| 20260906071104 | 25 | 150 | 4.8 | 11.3 | 0.00 | 0.00 | 0.00 | 72 | 1014.7 |
| 20260906070604 | 25 | 140 | 4.8 | 11.3 | 0.00 | 0.00 | 0.00 | 72 | 1014.7 |
| 20260906070104 | 26 | 142 | 6.4 | 12.9 | 0.00 | 0.00 | 0.00 | 71 | 1014.7 |
| 20260906064603 | 26 | 134 | 4.8 | 9.7 | 0.00 | 0.00 | 0.00 | 69 | 1014.5 |
| 20260906064103 | 26 | 135 | 3.2 | 9.7 | 0.00 | 0.00 | 0.00 | 69 | 1014.5 |
| 20260906063603 | 26 | 135 | 3.2 | 12.9 | 0.00 | 0.00 | 0.00 | 69 | 1014.5 |
| 20260906063104 | 26 | 143 | 3.2 | 8.0 | 0.00 | 0.00 | 0.00 | 69 | 1014.5 |
| 20260906062604 | 26 | 146 | 3.2 | 9.7 | 0.00 | 0.00 | 0.00 | 68 | 1014.5 |
| 20260906062104 | 26 | 145 | 3.2 | 8.0 | 0.00 | 0.00 | 0.00 | 68 | 1014.6 |
| 20260906061604 | 26 | 145 | 3.2 | 11.3 | 0.00 | 0.00 | 0.00 | 69 | 1014.6 |
| 20260906061104 | 26 | 130 | 4.8 | 12.9 | 0.00 | 0.00 | 0.00 | 69 | 1014.7 |
| 20260906060604 | 26 | 131 | 3.2 | 9.7 | 0.00 | 0.00 | 0.00 | 69 | 1014.7 |
| 20260906060104 | 26 | 131 | 4.8 | 9.7 | 0.00 | 0.00 | 0.00 | 70 | 1014.8 |
| 20260906055604 | 26 | 132 | 3.2 | 9.7 | 0.00 | 0.00 | 0.00 | 70 | 1014.8 |
| 20260906054604 | 25 | 128 | 3.2 | 9.7 | 0.00 | 0.00 | 0.00 | 72 | 1014.8 |
| 20260906054103 | 25 | 128 | 3.2 | 4.8 | 0.00 | 0.00 | 0.00 | 73 | 1014.8 |
| 20260906053603 | 25 | 127 | 1.6 | 3.2 | 0.00 | 0.00 | 0.00 | 74 | 1014.8 |
| 20260906053103 | 25 | 127 | 0.0 | 1.6 | 0.00 | 0.00 | 0.00 | 74 | 1015.1 |
| 20260906052604 | 25 | 127 | 0.0 | 3.2 | 0.00 | 0.00 | 0.00 | 74 | 1015.1 |
| 20260906052103 | 26 | 127 | 0.0 | 1.6 | 0.00 | 0.00 | 0.00 | 74 | 1015.1 |
| 20260906051603 | 26 | 127 | 0.0 | 1.6 | 0.00 | 0.00 | 0.00 | 74 | 1015.1 |
| 20260906051103 | 26 | 127 | 0.0 | 3.2 | 0.00 | 0.00 | 0.00 | 73 | 1015.1 |
| 20260906045603 | 26 | 127 | 3.2 | 4.8 | 0.00 | 0.00 | 0.00 | 71 | 1014.8 |
| 20260906045104 | 27 | 128 | 3.2 | 4.8 | 0.00 | 0.00 | 0.00 | 70 | 1014.8 |
| 20260906044603 | 27 | 128 | 3.2 | 4.8 | 0.00 | 0.00 | 0.00 | 69 | 1014.9 |
| 20260906044103 | 27 | 128 | 1.6 | 3.2 | 0.00 | 0.00 | 0.00 | 69 | 1014.9 |
| 20260906043103 | 26 | 128 | 0.0 | 1.6 | 0.00 | 0.00 | 0.00 | 70 | 1014.9 |
| 20260906042603 | 27 | 128 | 1.6 | 3.2 | 0.00 | 0.00 | 0.00 | 70 | 1015.0 |
| 20260906042104 | 27 | 128 | 1.6 | 3.2 | 0.00 | 0.00 | 0.00 | 70 | 1014.9 |
| 20260906041603 | 27 | 128 | 0.0 | 1.6 | 0.00 | 0.00 | 0.00 | 70 | 1014.9 |
| 20260906041103 | 27 | 128 | 0.0 | 3.2 | 0.00 | 0.00 | 0.00 | 70 | 1014.9 |
| 20260906040603 | 27 | 128 | 3.2 | 4.8 | 0.00 | 0.00 | 0.00 | 70 | 1014.9 |
| 20260906035604 | 27 | 128 | 0.0 | 3.2 | 0.00 | 0.00 | 0.00 | 70 | 1014.5 |
| 20260906034104 | 27 | 128 | 1.6 | 3.2 | 0.00 | 0.00 | 0.00 | 71 | 1014.6 |
| 20260906033604 | 27 | 128 | 1.6 | 11.3 | 0.00 | 0.00 | 0.00 | 70 | 1014.6 |
| 20260906033104 | 27 | 126 | 1.6 | 4.8 | 0.00 | 0.00 | 0.00 | 70 | 1014.6 |
| 20260906032604 | 27 | 126 | 1.6 | 4.8 | 0.00 | 0.00 | 0.00 | 69 | 1014.4 |
| 20260906032104 | 27 | 126 | 0.0 | 4.8 | 0.00 | 0.00 | 0.00 | 69 | 1014.4 |
| 20260906031604 | 27 | 126 | 4.8 | 9.7 | 0.00 | 0.00 | 0.00 | 69 | 1014.4 |
| 20260906031104 | 27 | 124 | 6.4 | 11.3 | 0.00 | 0.00 | 0.00 | 69 | 1014.4 |
| 20260906030604 | 27 | 110 | 4.8 | 9.7 | 0.00 | 0.00 | 0.00 | 69 | 1014.2 |
| 20260906030104 | 27 | 98 | 1.6 | 3.2 | 0.00 | 0.00 | 0.00 | 69 | 1014.3 |
| 20260906024604 | 28 | 98 | 1.6 | 3.2 | 0.00 | 0.00 | 0.00 | 69 | 1014.1 |
| 20260906024104 | 28 | 98 | 0.0 | 1.6 | 0.00 | 0.00 | 0.00 | 69 | 1014.2 |
| 20260906023604 | 28 | 98 | 0.0 | 1.6 | 0.00 | 0.00 | 0.00 | 68 | 1013.8 |
| 20260906023103 | 28 | 98 | 0.0 | 0.0 | 0.00 | 0.00 | 0.00 | 68 | 1013.8 |
| 20260906022603 | 28 | 98 | 0.0 | 3.2 | 0.00 | 0.00 | 0.00 | 68 | 1013.8 |
| 20260906021604 | 28 | 98 | 0.0 | 3.2 | 0.00 | 0.00 | 0.00 | 69 | 1013.5 |
| 20260906021104 | 28 | 98 | 0.0 | 1.6 | 0.00 | 0.00 | 0.00 | 69 | 1013.5 |
| 20260906020604 | 28 | 98 | 0.0 | 1.6 | 0.00 | 0.00 | 0.00 | 69 | 1013.5 |
| 20260906020104 | 28 | 98 | 0.0 | 1.6 | 0.00 | 0.00 | 0.00 | 69 | 1013.4 |
| 20260906015604 | 28 | 98 | 0.0 | 1.6 | 0.00 | 0.00 | 0.00 | 70 | 1013.4 |
| 20260906014604 | 28 | 98 | 0.0 | 0.0 | 0.00 | 0.00 | 0.00 | 70 | 1013.3 |
| 20260906014104 | 28 | 98 | 0.0 | 1.6 | 0.00 | 0.00 | 0.00 | 70 | 1013.3 |
| 20260906013604 | 28 | 98 | 0.0 | 4.8 | 0.00 | 0.00 | 0.00 | 69 | 1013.4 |
| 20260906013104 | 29 | 98 | 0.0 | 4.8 | 0.00 | 0.00 | 0.00 | 69 | 1013.2 |
| 20260906012604 | 29 | 98 | 1.6 | 4.8 | 0.00 | 0.00 | 0.00 | 68 | 1013.2 |
| 20260906012104 | 29 | 98 | 1.6 | 1.6 | 0.00 | 0.00 | 0.00 | 68 | 1013.1 |
| 20260906011604 | 30 | 98 | 1.6 | 4.8 | 0.00 | 0.00 | 0.00 | 67 | 1013.0 |
| 20260906011103 | 30 | 98 | 1.6 | 3.2 | 0.00 | 0.00 | 0.00 | 66 | 1013.0 |
| 20260906010603 | 30 | 98 | 0.0 | 3.2 | 0.00 | 0.00 | 0.00 | 65 | 1012.9 |
| 20260906010104 | 30 | 98 | 0.0 | 3.2 | 0.00 | 0.00 | 0.00 | 65 | 1012.9 |
| 20260906005604 | 31 | 98 | 1.6 | 3.2 | 0.00 | 0.00 | 0.00 | 64 | 1013.1 |
| 20260906004604 | 31 | 98 | 1.6 | 3.2 | 0.00 | 0.00 | 0.00 | 62 | 1013.1 |
| 20260906004102 | 31 | 98 | 0.0 | 3.2 | 0.00 | 0.00 | 0.00 | 61 | 1013.1 |
| 20260906003602 | 32 | 98 | 1.6 | 3.2 | 0.00 | 0.00 | 0.00 | 60 | 1012.8 |
| 20260906003102 | 32 | 98 | 0.0 | 3.2 | 0.00 | 0.00 | 0.00 | 58 | 1012.8 |
| 20260906002602 | 32 | 98 | 1.6 | 3.2 | 0.00 | 0.00 | 0.00 | 57 | 1012.8 |
| 20260906002102 | 33 | 98 | 0.0 | 3.2 | 0.00 | 0.00 | 0.00 | 56 | 1012.8 |
| 20260906001602 | 33 | 98 | 1.6 | 3.2 | 0.00 | 0.00 | 0.00 | 55 | 1012.8 |
| 20260906001102 | 33 | 98 | 0.0 | 4.8 | 0.00 | 0.00 | 0.00 | 54 | 1012.8 |
| 20260906000602 | 33 | 98 | 3.2 | 9.7 | 0.00 | 0.00 | 0.00 | 54 | 1012.7 |
| 20260905235602 | 33 | 98 | 3.2 | 9.7 | 0.00 | 0.00 | 0.00 | 54 | 1012.7 |
| 20260905235103 | 33 | 109 | 3.2 | 9.7 | 0.00 | 0.00 | 0.00 | 54 | 1012.7 |
| 20260905234603 | 33 | 116 | 3.2 | 8.0 | 0.00 | 0.00 | 0.00 | 54 | 1012.7 |
| 20260905233102 | 34 | 98 | 3.2 | 4.8 | 0.00 | 0.00 | 0.00 | 52 | 1012.8 |
| 20260905232602 | 34 | 119 | 1.6 | 4.8 | 0.00 | 0.00 | 0.00 | 52 | 1012.8 |
| 20260905232102 | 34 | 120 | 3.2 | 4.8 | 0.00 | 0.00 | 0.00 | 52 | 1012.7 |
| 20260905231102 | 34 | 133 | 1.6 | 11.3 | 0.00 | 0.00 | 0.00 | 51 | 1012.6 |
| 20260905230602 | 34 | 139 | 3.2 | 9.7 | 0.00 | 0.00 | 0.00 | 52 | 1012.6 |
| 20260905225102 | 33 | 158 | 1.6 | 11.3 | 0.00 | 0.00 | 0.00 | 52 | 1012.7 |
| 20260905224602 | 34 | 124 | 3.2 | 8.0 | 0.00 | 0.00 | 0.00 | 52 | 1012.7 |
| 20260905224102 | 34 | 123 | 4.8 | 11.3 | 0.00 | 0.00 | 0.00 | 51 | 1012.8 |
| 20260905223602 | 34 | 86 | 4.8 | 8.0 | 0.00 | 0.00 | 0.00 | 51 | 1012.8 |
| 20260905223102 | 34 | 84 | 4.8 | 12.9 | 0.00 | 0.00 | 0.00 | 52 | 1012.9 |
| 20260905222602 | 34 | 117 | 4.8 | 19.3 | 0.00 | 0.00 | 0.00 | 53 | 1012.9 |
| 20260905222102 | 33 | 133 | 1.6 | 9.7 | 0.00 | 0.00 | 0.00 | 54 | 1012.9 |
| 20260905221602 | 33 | 124 | 3.2 | 12.9 | 0.00 | 0.00 | 0.00 | 53 | 1013.1 |
| 20260905220603 | 33 | 144 | 6.4 | 9.7 | 0.00 | 0.00 | 0.00 | 53 | 1013.3 |
| 20260905215602 | 33 | 117 | 4.8 | 12.9 | 0.00 | 0.00 | 0.00 | 53 | 1013.3 |
| 20260905215103 | 33 | 126 | 8.0 | 12.9 | 0.00 | 0.00 | 0.00 | 53 | 1013.3 |
| 20260905214602 | 33 | 71 | 4.8 | 14.5 | 0.00 | 0.00 | 0.00 | 54 | 1013.3 |
| 20260905214102 | 33 | 82 | 3.2 | 12.9 | 0.00 | 0.00 | 0.00 | 55 | 1013.3 |
| 20260905213602 | 33 | 138 | 3.2 | 12.9 | 0.00 | 0.00 | 0.00 | 55 | 1013.5 |
| 20260905213103 | 33 | 123 | 3.2 | 11.3 | 0.00 | 0.00 | 0.00 | 55 | 1013.5 |
| 20260905212602 | 33 | 139 | 6.4 | 11.3 | 0.00 | 0.00 | 0.00 | 56 | 1013.6 |
| 20260905212102 | 33 | 79 | 4.8 | 14.5 | 0.00 | 0.00 | 0.00 | 55 | 1013.7 |
| 20260905210602 | 33 | 60 | 3.2 | 12.9 | 0.00 | 0.00 | 0.00 | 55 | 1013.9 |
| 20260905205602 | 33 | 78 | 6.4 | 14.5 | 0.00 | 0.00 | 0.00 | 55 | 1014.1 |
| 20260905205102 | 33 | 104 | 4.8 | 14.5 | 0.00 | 0.00 | 0.00 | 54 | 1014.2 |
| 20260905204602 | 32 | 84 | 8.0 | 14.5 | 0.00 | 0.00 | 0.00 | 55 | 1014.3 |
| 20260905204102 | 32 | 68 | 4.8 | 14.5 | 0.00 | 0.00 | 0.00 | 58 | 1014.4 |
| 20260905203602 | 32 | 63 | 12.9 | 22.5 | 0.00 | 0.00 | 0.00 | 59 | 1014.6 |
| 20260905203102 | 32 | 58 | 9.7 | 19.3 | 0.00 | 0.00 | 0.00 | 60 | 1014.6 |
| 20260905202602 | 32 | 51 | 6.4 | 16.1 | 0.00 | 0.00 | 0.00 | 60 | 1014.6 |
| 20260905201602 | 32 | 55 | 8.0 | 14.5 | 0.00 | 0.00 | 0.00 | 61 | 1014.7 |